Time;durP1;ratioP1;P1;durP2;ratioP2;P2;SDS_P1;SDS_P2;PMS_P1;PMS_P2;Temp;Humidity;BMP_temperature;BMP_pressure;BME280_temperature;BME280_humidity;BME280_pressure;Samples;Min_cycle;Max_cycle;Signal;HPM_P1;HPM_P2
2021/01/06 00:02:22;;;;;;;29.83;15.87;;;;;;;;;;5058533;28;21267;-68
2021/01/06 00:04:53;;;;;;;27.80;15.37;;;;;;;;;;5058110;28;20576;-68
2021/01/06 00:07:20;;;;;;;30.70;17.20;;;;;;;;;;5058037;28;20499;-68
2021/01/06 00:09:48;;;;;;;30.03;16.40;;;;;;;;;;5058331;28;20449;-68
2021/01/06 00:12:18;;;;;;;26.57;14.63;;;;;;;;;;5057752;28;20444;-68
2021/01/06 00:14:46;;;;;;;31.70;15.97;;;;;;;;;;5058040;28;20525;-67
2021/01/06 00:17:13;;;;;;;28.30;14.40;;;;;;;;;;5058310;28;20449;-68
2021/01/06 00:19:40;;;;;;;28.83;14.17;;;;;;;;;;5058096;28;20483;-68
2021/01/06 00:22:06;;;;;;;30.37;15.10;;;;;;;;;;5057920;28;20445;-67
2021/01/06 00:24:33;;;;;;;32.27;16.30;;;;;;;;;;5057909;28;20477;-68
2021/01/06 00:27:01;;;;;;;31.70;15.90;;;;;;;;;;5057813;28;20429;-68
2021/01/06 00:29:28;;;;;;;32.07;15.17;;;;;;;;;;5057539;28;20537;-68
2021/01/06 00:31:55;;;;;;;34.03;16.43;;;;;;;;;;5057794;28;20434;-68
2021/01/06 00:34:22;;;;;;;31.97;16.03;;;;;;;;;;5057579;28;20458;-68
2021/01/06 00:36:49;;;;;;;31.00;15.53;;;;;;;;;;5058059;28;20445;-68
2021/01/06 00:39:16;;;;;;;27.10;14.87;;;;;;;;;;5057459;28;21075;-67
2021/01/06 00:41:43;;;;;;;29.53;16.17;;;;;;;;;;5057717;28;20453;-68
2021/01/06 00:44:11;;;;;;;32.33;15.87;;;;;;;;;;5057153;28;20471;-68
2021/01/06 00:46:38;;;;;;;30.53;14.50;;;;;;;;;;5057519;28;21027;-67
2021/01/06 00:49:05;;;;;;;31.13;16.47;;;;;;;;;;5057661;28;20455;-67
2021/01/06 00:51:33;;;;;;;30.87;15.20;;;;;;;;;;5057866;28;20453;-67
2021/01/06 00:53:59;;;;;;;30.07;14.63;;;;;;;;;;5057429;28;20952;-68
2021/01/06 00:56:27;;;;;;;30.50;15.13;;;;;;;;;;5057703;28;20445;-67
2021/01/06 00:58:54;;;;;;;29.20;15.70;;;;;;;;;;5057268;28;20991;-68
2021/01/06 01:01:22;;;;;;;28.47;14.53;;;;;;;;;;5058101;28;20460;-67
2021/01/06 01:03:50;;;;;;;30.67;14.63;;;;;;;;;;5061588;28;20507;-68
2021/01/06 01:06:24;;;;;;;30.27;14.50;;;;;;;;;;5061689;28;20572;-67
2021/01/06 01:08:51;;;;;;;32.63;15.73;;;;;;;;;;5061454;28;20472;-67
2021/01/06 01:11:21;;;;;;;25.70;15.20;;;;;;;;;;5061301;28;20504;-67
2021/01/06 01:13:48;;;;;;;31.17;15.87;;;;;;;;;;5061334;28;20482;-68
2021/01/06 01:16:17;;;;;;;35.77;16.10;;;;;;;;;;5061605;28;20450;-67
2021/01/06 01:18:45;;;;;;;29.63;15.30;;;;;;;;;;5061523;28;20459;-68
2021/01/06 01:21:11;;;;;;;30.07;15.13;;;;;;;;;;5061621;28;20451;-67
2021/01/06 01:23:38;;;;;;;28.40;15.50;;;;;;;;;;5061480;28;20523;-67
2021/01/06 01:26:05;;;;;;;30.53;16.13;;;;;;;;;;5060918;28;20568;-67
2021/01/06 01:28:32;;;;;;;27.83;14.83;;;;;;;;;;5061172;28;20445;-67
2021/01/06 01:30:59;;;;;;;29.97;15.63;;;;;;;;;;5061262;28;20476;-67
2021/01/06 01:33:27;;;;;;;29.33;15.53;;;;;;;;;;5061126;28;20433;-67
2021/01/06 01:35:57;;;;;;;30.17;15.73;;;;;;;;;;5061086;28;20461;-68
2021/01/06 01:38:25;;;;;;;31.83;16.17;;;;;;;;;;5060932;28;20572;-68
2021/01/06 01:40:56;;;;;;;30.80;16.00;;;;;;;;;;5061029;28;20449;-68
2021/01/06 01:43:24;;;;;;;28.77;15.60;;;;;;;;;;5060603;28;20437;-67
2021/01/06 01:46:21;;;;;;;34.63;16.77;;;;;;;;;;5060807;28;20580;-67
2021/01/06 01:48:49;;;;;;;27.37;13.40;;;;;;;;;;4999251;28;20526;-68
2021/01/06 01:51:19;;;;;;;32.23;16.27;;;;;;;;;;5047240;28;20456;-68
2021/01/06 01:53:49;;;;;;;29.50;14.73;;;;;;;;;;5060756;28;20987;-67
2021/01/06 01:56:18;;;;;;;30.10;15.37;;;;;;;;;;5060557;28;20876;-67
2021/01/06 01:58:48;;;;;;;28.00;14.37;;;;;;;;;;5060433;28;20456;-67
2021/01/06 02:01:16;;;;;;;30.50;15.70;;;;;;;;;;5060585;28;20445;-67
2021/01/06 02:03:47;;;;;;;32.47;17.20;;;;;;;;;;5060393;28;20467;-68
2021/01/06 02:06:18;;;;;;;31.37;14.90;;;;;;;;;;5060659;28;20553;-68
2021/01/06 02:08:50;;;;;;;30.30;14.80;;;;;;;;;;5060346;28;20445;-67
2021/01/06 02:11:18;;;;;;;27.10;14.37;;;;;;;;;;5060433;28;20521;-68
2021/01/06 02:13:49;;;;;;;33.17;15.23;;;;;;;;;;5059056;28;20446;-67
2021/01/06 02:16:19;;;;;;;27.27;15.00;;;;;;;;;;5060641;28;20442;-68
2021/01/06 02:18:46;;;;;;;28.60;14.90;;;;;;;;;;5060264;28;20807;-67
2021/01/06 02:21:15;;;;;;;28.17;14.63;;;;;;;;;;5060369;28;20480;-67
2021/01/06 02:23:44;;;;;;;32.57;16.30;;;;;;;;;;5060412;28;20448;-68
2021/01/06 02:26:11;;;;;;;28.73;13.57;;;;;;;;;;5059704;28;20485;-67
2021/01/06 02:28:38;;;;;;;34.37;16.67;;;;;;;;;;5060062;28;20437;-67
2021/01/06 02:31:05;;;;;;;29.30;16.30;;;;;;;;;;5059861;28;20554;-67
2021/01/06 02:33:32;;;;;;;31.87;15.67;;;;;;;;;;5060244;28;21001;-67
2021/01/06 02:35:59;;;;;;;32.40;16.20;;;;;;;;;;5059922;28;20540;-67
2021/01/06 02:38:29;;;;;;;29.47;15.20;;;;;;;;;;5059866;28;20560;-68
2021/01/06 02:40:56;;;;;;;28.57;15.00;;;;;;;;;;5059507;28;20802;-67
2021/01/06 02:43:24;;;;;;;33.33;15.93;;;;;;;;;;5059754;28;20532;-67
2021/01/06 02:45:52;;;;;;;33.83;16.07;;;;;;;;;;5059471;28;20575;-67
2021/01/06 02:48:19;;;;;;;25.67;14.93;;;;;;;;;;5059791;28;20453;-67
2021/01/06 02:50:48;;;;;;;30.90;14.67;;;;;;;;;;5059689;28;20453;-67
2021/01/06 02:53:17;;;;;;;28.40;15.17;;;;;;;;;;5059618;28;20901;-67
2021/01/06 02:55:47;;;;;;;34.10;15.77;;;;;;;;;;5059434;28;20457;-68
2021/01/06 02:58:16;;;;;;;30.37;16.43;;;;;;;;;;5059357;28;20445;-67
2021/01/06 03:00:43;;;;;;;30.13;15.50;;;;;;;;;;5059719;28;20455;-67
2021/01/06 03:03:12;;;;;;;29.07;14.83;;;;;;;;;;5059289;28;20529;-68
2021/01/06 03:05:39;;;;;;;29.93;15.77;;;;;;;;;;5059318;28;20489;-67
2021/01/06 03:08:08;;;;;;;32.20;15.43;;;;;;;;;;5059499;28;20449;-67
2021/01/06 03:10:34;;;;;;;28.73;13.50;;;;;;;;;;5059532;28;20445;-67
2021/01/06 03:13:02;;;;;;;25.90;13.93;;;;;;;;;;5058796;28;20499;-67
2021/01/06 03:15:30;;;;;;;27.43;14.53;;;;;;;;;;5059386;28;20468;-67
2021/01/06 03:17:58;;;;;;;26.33;14.30;;;;;;;;;;5059104;28;20456;-67
2021/01/06 03:20:27;;;;;;;21.47;13.00;;;;;;;;;;5059281;28;20481;-67
2021/01/06 03:22:57;;;;;;;28.53;14.10;;;;;;;;;;5059174;28;20480;-68
2021/01/06 03:25:24;;;;;;;29.87;14.50;;;;;;;;;;5059087;28;20577;-67
2021/01/06 03:27:53;;;;;;;30.63;14.73;;;;;;;;;;5059649;28;20446;-68
2021/01/06 03:30:22;;;;;;;31.37;15.10;;;;;;;;;;5059286;28;21012;-67
2021/01/06 03:32:54;;;;;;;30.40;14.27;;;;;;;;;;5059453;28;21024;-67
2021/01/06 03:35:26;;;;;;;24.03;14.40;;;;;;;;;;5066747;28;20465;-67
2021/01/06 03:37:55;;;;;;;30.73;14.80;;;;;;;;;;5059484;28;20882;-67
2021/01/06 03:40:26;;;;;;;29.20;14.27;;;;;;;;;;5059555;28;20449;-67
2021/01/06 03:42:54;;;;;;;28.33;14.10;;;;;;;;;;5058695;28;20465;-67
2021/01/06 03:45:29;;;;;;;23.67;13.93;;;;;;;;;;5058685;28;20496;-67
2021/01/06 03:47:58;;;;;;;27.20;13.23;;;;;;;;;;5058543;28;20435;-67
2021/01/06 03:50:29;;;;;;;30.50;14.90;;;;;;;;;;5058447;28;20445;-67
2021/01/06 03:53:00;;;;;;;24.57;13.40;;;;;;;;;;5058467;28;20478;-67
2021/01/06 03:55:31;;;;;;;30.60;14.40;;;;;;;;;;5058263;28;20461;-67
2021/01/06 03:57:58;;;;;;;31.77;15.40;;;;;;;;;;5058073;28;20441;-67
2021/01/06 04:00:33;;;;;;;26.87;12.73;;;;;;;;;;5064379;28;20445;-67
2021/01/06 04:03:03;;;;;;;27.10;13.30;;;;;;;;;;5069256;28;20435;-67
2021/01/06 04:05:30;;;;;;;26.07;12.50;;;;;;;;;;5065839;28;20538;-67
2021/01/06 04:08:00;;;;;;;25.17;13.40;;;;;;;;;;5066954;28;20431;-67
2021/01/06 04:10:28;;;;;;;25.63;13.60;;;;;;;;;;5065684;28;20473;-67
2021/01/06 04:12:55;;;;;;;29.03;13.73;;;;;;;;;;5068057;28;20497;-67
2021/01/06 04:15:22;;;;;;;29.00;13.60;;;;;;;;;;5063711;28;20492;-67
2021/01/06 04:17:52;;;;;;;24.93;13.23;;;;;;;;;;5054912;28;20448;-67
2021/01/06 04:20:28;;;;;;;26.13;13.80;;;;;;;;;;5057708;28;20513;-67
2021/01/06 04:22:56;;;;;;;23.77;13.37;;;;;;;;;;5058122;28;20467;-67
2021/01/06 04:25:25;;;;;;;27.73;13.60;;;;;;;;;;5057901;28;20470;-67
2021/01/06 04:27:53;;;;;;;28.60;13.63;;;;;;;;;;5057259;28;20529;-67
2021/01/06 04:30:23;;;;;;;25.53;12.93;;;;;;;;;;5057593;28;20548;-67
2021/01/06 04:32:51;;;;;;;28.73;13.40;;;;;;;;;;5057685;28;20804;-67
2021/01/06 04:35:18;;;;;;;28.77;13.37;;;;;;;;;;5057715;28;20545;-67
2021/01/06 04:37:45;;;;;;;25.67;13.03;;;;;;;;;;5057096;28;20493;-67
2021/01/06 04:40:13;;;;;;;24.73;12.50;;;;;;;;;;5057715;28;20476;-67
2021/01/06 04:42:39;;;;;;;22.60;12.37;;;;;;;;;;5057291;28;20463;-67
2021/01/06 04:45:10;;;;;;;24.90;13.33;;;;;;;;;;5057700;28;20469;-67
2021/01/06 04:47:55;;;;;;;25.50;12.80;;;;;;;;;;5057181;28;20514;-67
2021/01/06 04:50:31;;;;;;;23.20;12.40;;;;;;;;;;5058714;28;20866;-67
2021/01/06 04:53:02;;;;;;;20.60;11.03;;;;;;;;;;5057691;28;20457;-67
2021/01/06 04:55:35;;;;;;;25.23;12.37;;;;;;;;;;5057213;28;20547;-67
2021/01/06 04:58:09;;;;;;;23.27;13.10;;;;;;;;;;5057370;28;20441;-67
2021/01/06 05:00:43;;;;;;;23.77;11.83;;;;;;;;;;5057338;28;20445;-67
2021/01/06 05:03:23;;;;;;;24.10;12.03;;;;;;;;;;5057386;28;20448;-67
2021/01/06 05:06:03;;;;;;;21.63;11.67;;;;;;;;;;5057442;28;20575;-67
2021/01/06 05:08:34;;;;;;;24.83;12.87;;;;;;;;;;5057421;28;20452;-67
2021/01/06 05:11:04;;;;;;;25.90;12.77;;;;;;;;;;5057322;28;20464;-67
2021/01/06 05:13:34;;;;;;;24.00;12.87;;;;;;;;;;5057140;28;20464;-67
2021/01/06 05:16:03;;;;;;;25.10;12.87;;;;;;;;;;5057334;28;20548;-67
2021/01/06 05:18:30;;;;;;;28.17;12.37;;;;;;;;;;5057189;28;20445;-67
2021/01/06 05:20:57;;;;;;;30.43;12.97;;;;;;;;;;5057286;28;20532;-67
2021/01/06 05:23:27;;;;;;;21.20;12.53;;;;;;;;;;5057180;28;20445;-67
2021/01/06 05:25:55;;;;;;;23.80;12.10;;;;;;;;;;5056933;28;20489;-67
2021/01/06 05:28:22;;;;;;;23.53;12.20;;;;;;;;;;5056986;28;20433;-67
2021/01/06 05:30:52;;;;;;;22.50;13.00;;;;;;;;;;5057138;28;20442;-67
2021/01/06 05:33:21;;;;;;;19.87;10.73;;;;;;;;;;5057143;28;20441;-67
2021/01/06 05:35:48;;;;;;;21.50;11.13;;;;;;;;;;5057245;28;20457;-67
2021/01/06 05:38:15;;;;;;;24.33;13.00;;;;;;;;;;5056563;28;20491;-67
2021/01/06 05:40:43;;;;;;;26.13;13.93;;;;;;;;;;5056346;28;21004;-67
2021/01/06 05:43:20;;;;;;;24.60;14.23;;;;;;;;;;5045705;28;20437;-67
2021/01/06 05:45:52;;;;;;;25.73;12.50;;;;;;;;;;5056906;28;20499;-67
2021/01/06 05:48:20;;;;;;;24.37;12.33;;;;;;;;;;5057300;28;20449;-67
2021/01/06 05:50:51;;;;;;;22.83;12.27;;;;;;;;;;5060745;28;20438;-67
2021/01/06 05:53:23;;;;;;;19.00;11.73;;;;;;;;;;5060835;28;20553;-67
2021/01/06 05:55:51;;;;;;;20.87;11.50;;;;;;;;;;5060510;28;20535;-66
2021/01/06 05:58:20;;;;;;;28.03;12.63;;;;;;;;;;5060341;28;20457;-66
2021/01/06 06:00:52;;;;;;;22.47;12.13;;;;;;;;;;5060551;28;20445;-67
2021/01/06 06:03:30;;;;;;;21.90;10.83;;;;;;;;;;5060864;28;20477;-67
2021/01/06 06:06:01;;;;;;;24.90;12.30;;;;;;;;;;5060647;28;20485;-67
2021/01/06 06:08:39;;;;;;;25.57;12.27;;;;;;;;;;5060567;28;20445;-67
2021/01/06 06:11:28;;;;;;;23.77;11.13;;;;;;;;;;5060287;28;20449;-67
2021/01/06 06:14:12;;;;;;;19.97;11.50;;;;;;;;;;5060182;28;20516;-67
2021/01/06 06:16:42;;;;;;;21.63;11.57;;;;;;;;;;5059976;28;20433;-67
2021/01/06 06:19:39;;;;;;;20.53;10.87;;;;;;;;;;5060338;28;20525;-67
2021/01/06 06:22:15;;;;;;;23.30;11.93;;;;;;;;;;4998695;28;20448;-67
2021/01/06 06:24:48;;;;;;;23.57;12.00;;;;;;;;;;5049678;28;20847;-67
2021/01/06 06:27:29;;;;;;;23.83;12.43;;;;;;;;;;5059558;28;20511;-67
2021/01/06 06:30:16;;;;;;;27.50;13.27;;;;;;;;;;5047696;28;20540;-66
2021/01/06 06:32:44;;;;;;;21.30;12.03;;;;;;;;;;5059888;28;20441;-66
2021/01/06 06:35:20;;;;;;;25.33;13.20;;;;;;;;;;5059769;28;20469;-67
2021/01/06 06:37:48;;;;;;;24.47;12.23;;;;;;;;;;5057113;28;20472;-67
2021/01/06 06:40:15;;;;;;;25.20;13.03;;;;;;;;;;5059094;28;20442;-67
2021/01/06 06:42:49;;;;;;;23.67;12.63;;;;;;;;;;5058664;28;20528;-67
2021/01/06 06:45:37;;;;;;;28.73;14.73;;;;;;;;;;5058994;28;20894;-66
2021/01/06 06:48:10;;;;;;;26.13;12.77;;;;;;;;;;5054663;28;20453;-67
2021/01/06 06:50:47;;;;;;;25.93;12.77;;;;;;;;;;5059126;28;20451;-68
2021/01/06 06:53:17;;;;;;;24.43;12.67;;;;;;;;;;5059563;28;20445;-67
2021/01/06 06:55:49;;;;;;;25.60;13.57;;;;;;;;;;5059152;28;20470;-66
2021/01/06 06:58:31;;;;;;;23.70;13.03;;;;;;;;;;5059130;28;20509;-66
2021/01/06 07:00:59;;;;;;;24.53;12.27;;;;;;;;;;5056404;28;20457;-66
2021/01/06 07:03:35;;;;;;;24.37;13.13;;;;;;;;;;5059289;28;20921;-66
2021/01/06 07:06:02;;;;;;;23.50;12.60;;;;;;;;;;5059021;28;20894;-66
2021/01/06 07:08:31;;;;;;;24.00;13.13;;;;;;;;;;5060368;28;20469;-68
2021/01/06 07:11:00;;;;;;;23.00;12.63;;;;;;;;;;5060473;28;20437;-66
2021/01/06 07:13:27;;;;;;;28.87;13.60;;;;;;;;;;5060122;28;20433;-66
2021/01/06 07:15:57;;;;;;;26.83;13.77;;;;;;;;;;5059415;28;20519;-66
2021/01/06 07:18:42;;;;;;;22.37;12.43;;;;;;;;;;5058854;28;20433;-66
2021/01/06 07:21:22;;;;;;;24.50;12.73;;;;;;;;;;5059365;28;20445;-66
2021/01/06 07:23:52;;;;;;;21.90;12.17;;;;;;;;;;5058847;28;20481;-66
2021/01/06 07:26:22;;;;;;;20.03;10.97;;;;;;;;;;5058508;28;20995;-66
2021/01/06 07:28:49;;;;;;;23.50;12.50;;;;;;;;;;5058638;28;20563;-66
2021/01/06 07:31:20;;;;;;;22.40;12.73;;;;;;;;;;5058560;28;20445;-66
2021/01/06 07:33:51;;;;;;;22.40;11.93;;;;;;;;;;5058533;28;20481;-66
2021/01/06 07:36:21;;;;;;;23.37;10.90;;;;;;;;;;5058718;28;20449;-66
2021/01/06 07:38:49;;;;;;;20.87;12.33;;;;;;;;;;5058334;28;20544;-66
2021/01/06 07:41:16;;;;;;;19.87;11.90;;;;;;;;;;5058344;28;20461;-66
2021/01/06 07:43:59;;;;;;;24.37;11.87;;;;;;;;;;5058033;28;20538;-66
2021/01/06 07:46:27;;;;;;;22.17;12.20;;;;;;;;;;5058257;28;20489;-66
2021/01/06 07:49:00;;;;;;;19.83;11.93;;;;;;;;;;5058385;28;20782;-66
2021/01/06 07:51:32;;;;;;;21.57;11.40;;;;;;;;;;5058266;28;20453;-66
2021/01/06 07:54:02;;;;;;;21.20;10.67;;;;;;;;;;5058505;28;20453;-66
2021/01/06 07:56:32;;;;;;;18.70;10.63;;;;;;;;;;5058088;28;20521;-65
2021/01/06 07:59:00;;;;;;;19.90;11.57;;;;;;;;;;5057981;28;20449;-66
2021/01/06 08:01:32;;;;;;;20.13;11.07;;;;;;;;;;5058175;28;20449;-66
2021/01/06 08:04:01;;;;;;;15.43;9.77;;;;;;;;;;5058008;28;20451;-65
2021/01/06 08:06:38;;;;;;;22.47;11.27;;;;;;;;;;5058078;28;20485;-66
2021/01/06 08:09:06;;;;;;;21.67;11.17;;;;;;;;;;5058110;28;20445;-66
2021/01/06 08:11:43;;;;;;;18.53;10.60;;;;;;;;;;5057293;28;20511;-66
2021/01/06 08:14:18;;;;;;;20.67;11.30;;;;;;;;;;5057939;28;20465;-66
2021/01/06 08:16:47;;;;;;;17.90;10.27;;;;;;;;;;5057868;28;20449;-66
2021/01/06 08:19:18;;;;;;;21.90;11.50;;;;;;;;;;5057921;28;20924;-66
2021/01/06 08:21:50;;;;;;;22.33;10.77;;;;;;;;;;5058083;28;20445;-66
2021/01/06 08:24:25;;;;;;;25.13;11.40;;;;;;;;;;5057642;28;20899;-66
2021/01/06 08:26:54;;;;;;;21.70;11.27;;;;;;;;;;5057599;28;20523;-66
2021/01/06 08:29:22;;;;;;;19.17;10.30;;;;;;;;;;5057561;28;20451;-66
2021/01/06 08:31:50;;;;;;;24.97;12.30;;;;;;;;;;5057546;28;20438;-66
2021/01/06 08:34:28;;;;;;;22.50;11.63;;;;;;;;;;5057451;28;20475;-66
2021/01/06 08:36:57;;;;;;;24.03;11.70;;;;;;;;;;5057761;28;20448;-66
2021/01/06 08:39:26;;;;;;;22.90;11.33;;;;;;;;;;5057302;28;20469;-65
2021/01/06 08:41:56;;;;;;;17.47;10.70;;;;;;;;;;5056932;28;21020;-66
2021/01/06 08:44:31;;;;;;;39.63;12.00;;;;;;;;;;5057479;28;20489;-66
2021/01/06 08:47:00;;;;;;;29.00;10.63;;;;;;;;;;5057423;28;20542;-66
2021/01/06 08:49:29;;;;;;;22.37;9.87;;;;;;;;;;5057658;28;20449;-66
2021/01/06 08:52:10;;;;;;;24.93;11.43;;;;;;;;;;5057580;28;20460;-66
2021/01/06 08:54:38;;;;;;;22.63;11.37;;;;;;;;;;5057104;28;20473;-67
2021/01/06 08:57:06;;;;;;;19.93;11.03;;;;;;;;;;5056500;28;20441;-66
2021/01/06 08:59:37;;;;;;;23.00;10.23;;;;;;;;;;5056876;28;20449;-65
2021/01/06 09:02:13;;;;;;;19.83;11.07;;;;;;;;;;5056689;28;20796;-65
2021/01/06 09:04:41;;;;;;;23.00;10.53;;;;;;;;;;5055905;28;20471;-66
2021/01/06 09:07:21;;;;;;;26.57;13.27;;;;;;;;;;5057087;28;21065;-66
2021/01/06 09:10:03;;;;;;;27.10;14.93;;;;;;;;;;5057235;28;20472;-66
2021/01/06 09:12:41;;;;;;;22.63;12.17;;;;;;;;;;5056784;28;20449;-66
2021/01/06 09:15:17;;;;;;;21.77;10.77;;;;;;;;;;5057099;28;20832;-66
2021/01/06 09:17:49;;;;;;;27.03;11.73;;;;;;;;;;5057492;28;20460;-66
2021/01/06 09:20:20;;;;;;;19.67;10.60;;;;;;;;;;5057254;28;20449;-66
2021/01/06 09:22:47;;;;;;;20.80;10.10;;;;;;;;;;5058350;28;20452;-66
2021/01/06 09:25:18;;;;;;;24.10;10.43;;;;;;;;;;5061364;28;20531;-66
2021/01/06 09:27:46;;;;;;;27.50;11.07;;;;;;;;;;5060900;28;20485;-66
2021/01/06 09:30:20;;;;;;;18.47;10.57;;;;;;;;;;5061080;28;20511;-66
2021/01/06 09:32:48;;;;;;;18.63;10.27;;;;;;;;;;5062042;28;20441;-66
2021/01/06 09:35:17;;;;;;;22.00;11.33;;;;;;;;;;5061873;28;20454;-66
2021/01/06 09:37:49;;;;;;;15.33;9.20;;;;;;;;;;5061755;28;20484;-66
2021/01/06 09:40:18;;;;;;;15.63;8.70;;;;;;;;;;5060894;28;20548;-66
2021/01/06 09:42:46;;;;;;;12.83;8.37;;;;;;;;;;5060269;28;20531;-66
2021/01/06 09:45:18;;;;;;;14.70;8.57;;;;;;;;;;5060801;28;20469;-66
2021/01/06 09:47:45;;;;;;;18.23;9.00;;;;;;;;;;5047778;28;20481;-65
2021/01/06 09:50:18;;;;;;;15.60;9.20;;;;;;;;;;5060411;28;20483;-65
2021/01/06 09:52:46;;;;;;;17.53;9.73;;;;;;;;;;5060791;28;20447;-65
2021/01/06 09:55:15;;;;;;;16.63;9.70;;;;;;;;;;5060468;28;20469;-65
2021/01/06 09:57:44;;;;;;;19.07;9.93;;;;;;;;;;5060307;28;20453;-65
2021/01/06 10:00:25;;;;;;;19.33;10.57;;;;;;;;;;5060557;28;20449;-65
2021/01/06 10:02:53;;;;;;;22.83;10.63;;;;;;;;;;5060571;28;20441;-65
2021/01/06 10:05:24;;;;;;;21.37;9.97;;;;;;;;;;5060572;28;20465;-66
2021/01/06 10:07:53;;;;;;;20.37;11.03;;;;;;;;;;5060256;28;20480;-66
2021/01/06 10:10:22;;;;;;;22.00;12.10;;;;;;;;;;5060248;28;20859;-66
2021/01/06 10:12:55;;;;;;;25.53;11.37;;;;;;;;;;5059779;28;20448;-65
2021/01/06 10:15:27;;;;;;;19.37;10.00;;;;;;;;;;5060212;28;20469;-65
2021/01/06 10:18:03;;;;;;;18.63;10.57;;;;;;;;;;5059993;28;20450;-66
2021/01/06 10:20:33;;;;;;;17.10;9.93;;;;;;;;;;5059928;28;20920;-66
2021/01/06 10:23:03;;;;;;;22.50;10.27;;;;;;;;;;5060155;28;20453;-66
2021/01/06 10:25:40;;;;;;;20.07;10.37;;;;;;;;;;5060126;28;20916;-65
2021/01/06 10:28:12;;;;;;;20.17;8.53;;;;;;;;;;5059408;28;20484;-66
2021/01/06 10:30:39;;;;;;;18.87;9.07;;;;;;;;;;5060097;28;20445;-65
2021/01/06 10:33:17;;;;;;;18.33;10.23;;;;;;;;;;5060298;28;20453;-66
2021/01/06 10:35:46;;;;;;;22.47;9.63;;;;;;;;;;5059141;28;20461;-65
2021/01/06 10:38:21;;;;;;;17.97;8.63;;;;;;;;;;5059720;28;20507;-66
2021/01/06 10:40:49;;;;;;;18.77;9.77;;;;;;;;;;5059973;28;20448;-66
2021/01/06 10:43:35;;;;;;;19.50;9.27;;;;;;;;;;5059490;28;20520;-66
2021/01/06 10:46:23;;;;;;;29.10;10.67;;;;;;;;;;5059430;28;20534;-65
2021/01/06 10:48:51;;;;;;;21.37;9.10;;;;;;;;;;5058660;28;20528;-66
2021/01/06 10:51:37;;;;;;;20.53;10.43;;;;;;;;;;5059646;28;20869;-65
2021/01/06 10:54:04;;;;;;;18.33;9.60;;;;;;;;;;5059650;28;20440;-66
2021/01/06 10:56:32;;;;;;;22.63;10.43;;;;;;;;;;5059510;28;20476;-66
2021/01/06 10:59:05;;;;;;;17.40;9.43;;;;;;;;;;5059519;28;20450;-67
2021/01/06 11:01:48;;;;;;;20.20;9.33;;;;;;;;;;5059669;28;20525;-68
2021/01/06 11:04:23;;;;;;;21.63;10.50;;;;;;;;;;5059568;28;20985;-66
2021/01/06 11:06:54;;;;;;;17.67;9.97;;;;;;;;;;5059304;28;20891;-66
2021/01/06 11:09:29;;;;;;;23.23;10.07;;;;;;;;;;5059578;28;20539;-66
2021/01/06 11:12:09;;;;;;;20.30;10.23;;;;;;;;;;5058942;28;20811;-67
2021/01/06 11:14:54;;;;;;;23.00;11.07;;;;;;;;;;5059435;28;20477;-67
2021/01/06 11:17:29;;;;;;;18.57;10.10;;;;;;;;;;5055744;28;20456;-68
2021/01/06 11:19:57;;;;;;;19.60;9.87;;;;;;;;;;5058344;28;20444;-68
2021/01/06 11:22:32;;;;;;;17.20;10.90;;;;;;;;;;5057598;28;20433;-67
2021/01/06 11:25:02;;;;;;;19.90;11.07;;;;;;;;;;5053858;28;20477;-70
2021/01/06 11:27:40;;;;;;;17.80;9.83;;;;;;;;;;5056824;28;20477;-70
2021/01/06 11:30:22;;;;;;;17.70;9.70;;;;;;;;;;5057811;28;20524;-68
2021/01/06 11:33:08;;;;;;;17.47;9.57;;;;;;;;;;5048227;28;20458;-67
2021/01/06 11:35:42;;;;;;;19.53;11.17;;;;;;;;;;5043990;28;21467;-67
2021/01/06 11:38:30;;;;;;;20.43;11.30;;;;;;;;;;5043002;28;20469;-69
2021/01/06 11:40:57;;;;;;;21.53;11.20;;;;;;;;;;5045251;28;20517;-68
2021/01/06 11:43:45;;;;;;;21.67;10.83;;;;;;;;;;5040132;28;20477;-68
2021/01/06 11:46:21;;;;;;;14.77;9.90;;;;;;;;;;5040388;28;20494;-69
2021/01/06 11:48:49;;;;;;;23.57;11.80;;;;;;;;;;5041257;28;20529;-69
2021/01/06 11:51:19;;;;;;;18.90;10.80;;;;;;;;;;5048041;28;20450;-68
2021/01/06 11:53:57;;;;;;;22.17;11.90;;;;;;;;;;5038687;28;20434;-67
2021/01/06 11:56:26;;;;;;;21.73;10.60;;;;;;;;;;5049226;28;20587;-68
2021/01/06 11:59:13;;;;;;;24.20;10.37;;;;;;;;;;5056331;28;20808;-68
2021/01/06 12:01:50;;;;;;;18.20;10.60;;;;;;;;;;5054364;28;20446;-69
2021/01/06 12:04:34;;;;;;;23.97;11.40;;;;;;;;;;5056926;28;20456;-68
2021/01/06 12:07:14;;;;;;;21.33;10.17;;;;;;;;;;5046504;28;20900;-68
2021/01/06 12:09:50;;;;;;;19.77;10.70;;;;;;;;;;5056250;28;20451;-67
2021/01/06 12:12:31;;;;;;;24.73;11.13;;;;;;;;;;5056443;28;20815;-67
2021/01/06 12:14:58;;;;;;;21.27;11.93;;;;;;;;;;5056414;28;20461;-68
2021/01/06 12:17:30;;;;;;;19.80;11.77;;;;;;;;;;5057001;28;20445;-67
2021/01/06 12:19:59;;;;;;;26.07;12.43;;;;;;;;;;5057231;28;20429;-67
2021/01/06 12:22:28;;;;;;;24.33;13.07;;;;;;;;;;5058146;28;20461;-67
2021/01/06 12:25:25;;;;;;;23.90;12.23;;;;;;;;;;5059205;28;20922;-67
2021/01/06 12:28:03;;;;;;;25.33;13.20;;;;;;;;;;5057375;28;20477;-67
2021/01/06 12:30:33;;;;;;;24.23;12.10;;;;;;;;;;5057461;28;20442;-67
2021/01/06 12:33:04;;;;;;;22.83;13.67;;;;;;;;;;5057768;28;20468;-67
2021/01/06 12:35:31;;;;;;;21.07;10.93;;;;;;;;;;5057825;28;20465;-67
2021/01/06 12:38:03;;;;;;;28.20;15.40;;;;;;;;;;5057664;28;20516;-67
2021/01/06 12:40:30;;;;;;;22.70;11.80;;;;;;;;;;5045241;28;20822;-67
2021/01/06 12:42:58;;;;;;;21.03;12.43;;;;;;;;;;5057420;28;20450;-67
2021/01/06 12:45:27;;;;;;;24.67;12.97;;;;;;;;;;5057712;28;20453;-67
2021/01/06 12:47:59;;;;;;;18.33;11.10;;;;;;;;;;5057908;28;20489;-67
2021/01/06 12:50:28;;;;;;;23.13;11.33;;;;;;;;;;5057855;28;20448;-67
2021/01/06 12:52:56;;;;;;;25.43;12.47;;;;;;;;;;5057547;28;20533;-67
2021/01/06 12:55:46;;;;;;;26.17;12.67;;;;;;;;;;5057840;28;20468;-67
2021/01/06 12:58:19;;;;;;;23.00;12.33;;;;;;;;;;5057014;28;20443;-67
2021/01/06 13:00:46;;;;;;;22.93;12.73;;;;;;;;;;5057472;28;20532;-67
2021/01/06 13:03:37;;;;;;;22.60;12.47;;;;;;;;;;5057737;28;20924;-67
2021/01/06 13:06:15;;;;;;;22.50;11.33;;;;;;;;;;5057648;28;20552;-67
2021/01/06 13:08:49;;;;;;;19.97;10.97;;;;;;;;;;5057490;28;21042;-67
2021/01/06 13:11:19;;;;;;;21.90;11.03;;;;;;;;;;5057584;28;20445;-67
2021/01/06 13:13:47;;;;;;;19.60;12.07;;;;;;;;;;5057199;28;20896;-68
2021/01/06 13:16:18;;;;;;;20.60;10.77;;;;;;;;;;5057321;28;20437;-68
2021/01/06 13:18:46;;;;;;;27.43;12.47;;;;;;;;;;5057124;28;20472;-68
2021/01/06 13:21:25;;;;;;;19.17;10.83;;;;;;;;;;5057445;28;20447;-68
2021/01/06 13:24:01;;;;;;;23.17;12.10;;;;;;;;;;5057497;28;20453;-69
2021/01/06 13:26:34;;;;;;;20.40;10.47;;;;;;;;;;5058328;28;20439;-67
2021/01/06 13:29:05;;;;;;;22.23;11.30;;;;;;;;;;5055171;28;20494;-69
2021/01/06 13:31:35;;;;;;;23.87;12.07;;;;;;;;;;5055826;28;20438;-68
2021/01/06 13:34:06;;;;;;;20.10;12.07;;;;;;;;;;5054334;28;20444;-68
2021/01/06 13:36:38;;;;;;;23.80;11.70;;;;;;;;;;5055737;28;20984;-68
2021/01/06 13:39:07;;;;;;;24.50;12.43;;;;;;;;;;5054578;28;20555;-68
2021/01/06 13:41:36;;;;;;;25.43;11.90;;;;;;;;;;5056285;28;20807;-70
2021/01/06 13:44:04;;;;;;;23.13;11.87;;;;;;;;;;5054431;28;20434;-70
2021/01/06 13:46:40;;;;;;;24.17;12.13;;;;;;;;;;5056733;28;20536;-70
2021/01/06 13:49:18;;;;;;;23.60;12.90;;;;;;;;;;5055041;28;20512;-71
2021/01/06 13:51:48;;;;;;;22.73;12.10;;;;;;;;;;5055301;28;20451;-71
2021/01/06 13:54:24;;;;;;;25.07;11.97;;;;;;;;;;5056236;28;20450;-69
2021/01/06 13:56:56;;;;;;;22.93;11.73;;;;;;;;;;5062455;28;20442;-70
2021/01/06 13:59:30;;;;;;;27.73;12.37;;;;;;;;;;5062989;28;20452;-70
2021/01/06 14:01:59;;;;;;;19.67;10.80;;;;;;;;;;5065287;28;20436;-70
2021/01/06 14:04:27;;;;;;;21.27;10.80;;;;;;;;;;5066805;28;20461;-70
2021/01/06 14:06:58;;;;;;;21.20;11.63;;;;;;;;;;5067824;28;20437;-71
2021/01/06 14:09:33;;;;;;;19.57;12.53;;;;;;;;;;5064171;28;20537;-71
2021/01/06 14:12:21;;;;;;;27.70;11.67;;;;;;;;;;5062877;28;20453;-71
2021/01/06 14:14:54;;;;;;;28.03;11.47;;;;;;;;;;5024929;28;20488;-69
2021/01/06 14:17:42;;;;;;;20.50;11.00;;;;;;;;;;5060609;28;20524;-69
2021/01/06 14:20:14;;;;;;;18.97;11.40;;;;;;;;;;5060615;28;20517;-70
2021/01/06 14:22:43;;;;;;;20.87;11.13;;;;;;;;;;5060135;28;21008;-70
2021/01/06 14:25:31;;;;;;;23.13;11.20;;;;;;;;;;5059789;28;20481;-70
2021/01/06 14:28:02;;;;;;;25.70;11.77;;;;;;;;;;5059906;28;20516;-70
2021/01/06 14:30:33;;;;;;;25.67;12.50;;;;;;;;;;5060160;28;20453;-70
2021/01/06 14:33:03;;;;;;;20.03;11.10;;;;;;;;;;5059998;28;20437;-70
2021/01/06 14:35:43;;;;;;;22.37;11.17;;;;;;;;;;5060086;28;20475;-71
2021/01/06 14:38:25;;;;;;;21.07;11.20;;;;;;;;;;5048063;28;20469;-71
2021/01/06 14:40:55;;;;;;;24.67;12.57;;;;;;;;;;5060050;28;20459;-71
2021/01/06 14:43:32;;;;;;;20.40;11.50;;;;;;;;;;5059588;28;20449;-71
2021/01/06 14:46:06;;;;;;;22.70;11.67;;;;;;;;;;5059913;28;20461;-70